sensor_id;sensor_type;location;lat;lon;timestamp;pressure;altitude;pressure_sealevel;temperature;humidity
35577;BME280;21680;52.400;16.920;2023-11-21T00:01:16;99938.47;;;8.17;100.00
35577;BME280;21680;52.400;16.920;2023-11-21T00:03:42;99944.80;;;8.15;100.00
35577;BME280;21680;52.400;16.920;2023-11-21T00:06:08;99952.54;;;8.09;100.00
35577;BME280;21680;52.400;16.920;2023-11-21T00:08:34;99959.05;;;8.06;100.00
35577;BME280;21680;52.400;16.920;2023-11-21T00:10:59;99958.30;;;8.03;100.00
35577;BME280;21680;52.400;16.920;2023-11-21T00:13:25;99957.95;;;7.99;100.00
35577;BME280;21680;52.400;16.920;2023-11-21T00:15:51;99956.73;;;7.94;100.00
35577;BME280;21680;52.400;16.920;2023-11-21T00:18:16;99953.33;;;7.91;100.00
35577;BME280;21680;52.400;16.920;2023-11-21T00:20:41;99955.58;;;7.89;100.00
35577;BME280;21680;52.400;16.920;2023-11-21T00:23:07;99954.73;;;7.83;100.00
35577;BME280;21680;52.400;16.920;2023-11-21T00:25:32;99953.28;;;7.80;100.00
35577;BME280;21680;52.400;16.920;2023-11-21T00:27:58;99957.14;;;7.78;100.00
35577;BME280;21680;52.400;16.920;2023-11-21T00:30:23;99965.89;;;7.72;100.00
35577;BME280;21680;52.400;16.920;2023-11-21T00:32:48;99970.55;;;7.68;100.00
35577;BME280;21680;52.400;16.920;2023-11-21T00:35:14;99972.88;;;7.67;100.00
35577;BME280;21680;52.400;16.920;2023-11-21T00:37:39;99973.22;;;7.68;100.00
35577;BME280;21680;52.400;16.920;2023-11-21T00:40:05;99973.98;;;7.66;100.00
35577;BME280;21680;52.400;16.920;2023-11-21T00:42:31;99975.06;;;7.62;100.00
35577;BME280;21680;52.400;16.920;2023-11-21T00:44:59;99975.33;;;7.60;100.00
35577;BME280;21680;52.400;16.920;2023-11-21T00:47:24;99976.90;;;7.57;100.00
35577;BME280;21680;52.400;16.920;2023-11-21T00:49:49;99977.44;;;7.56;100.00
35577;BME280;21680;52.400;16.920;2023-11-21T00:52:15;99977.84;;;7.59;100.00
35577;BME280;21680;52.400;16.920;2023-11-21T00:54:41;99981.97;;;7.59;100.00
35577;BME280;21680;52.400;16.920;2023-11-21T00:57:07;99980.14;;;7.56;100.00
35577;BME280;21680;52.400;16.920;2023-11-21T00:59:34;99987.42;;;7.51;100.00
35577;BME280;21680;52.400;16.920;2023-11-21T01:02:00;99983.77;;;7.49;100.00
35577;BME280;21680;52.400;16.920;2023-11-21T01:04:27;99982.59;;;7.47;100.00
35577;BME280;21680;52.400;16.920;2023-11-21T01:06:53;99976.63;;;7.50;100.00
35577;BME280;21680;52.400;16.920;2023-11-21T01:09:19;99976.29;;;7.45;100.00
35577;BME280;21680;52.400;16.920;2023-11-21T01:11:44;99975.69;;;7.42;100.00
35577;BME280;21680;52.400;16.920;2023-11-21T01:14:09;99981.27;;;7.41;100.00
35577;BME280;21680;52.400;16.920;2023-11-21T01:16:36;99986.59;;;7.37;100.00
35577;BME280;21680;52.400;16.920;2023-11-21T01:19:01;99989.21;;;7.33;100.00
35577;BME280;21680;52.400;16.920;2023-11-21T01:21:27;99988.45;;;7.30;100.00
35577;BME280;21680;52.400;16.920;2023-11-21T01:23:53;99996.18;;;7.28;100.00
35577;BME280;21680;52.400;16.920;2023-11-21T01:26:20;99999.02;;;7.29;100.00
35577;BME280;21680;52.400;16.920;2023-11-21T01:28:45;99998.45;;;7.25;99.98
35577;BME280;21680;52.400;16.920;2023-11-21T01:31:14;99996.75;;;7.19;99.96
35577;BME280;21680;52.400;16.920;2023-11-21T01:33:39;100002.20;;;7.20;99.99
35577;BME280;21680;52.400;16.920;2023-11-21T01:36:05;100006.02;;;7.18;99.98
35577;BME280;21680;52.400;16.920;2023-11-21T01:38:30;100007.40;;;7.19;100.00
35577;BME280;21680;52.400;16.920;2023-11-21T01:40:57;100011.80;;;7.20;100.00
35577;BME280;21680;52.400;16.920;2023-11-21T01:43:22;100011.22;;;7.16;99.96
35577;BME280;21680;52.400;16.920;2023-11-21T01:45:48;100009.61;;;7.12;99.88
35577;BME280;21680;52.400;16.920;2023-11-21T01:48:13;100008.37;;;7.12;99.96
35577;BME280;21680;52.400;16.920;2023-11-21T01:50:42;100008.81;;;7.10;99.81
35577;BME280;21680;52.400;16.920;2023-11-21T01:53:08;100006.36;;;7.09;99.82
35577;BME280;21680;52.400;16.920;2023-11-21T01:55:34;100009.55;;;7.05;99.69
35577;BME280;21680;52.400;16.920;2023-11-21T01:57:59;100009.30;;;7.02;99.73
35577;BME280;21680;52.400;16.920;2023-11-21T02:00:25;100014.64;;;6.97;99.62
35577;BME280;21680;52.400;16.920;2023-11-21T02:02:53;100014.77;;;6.94;99.62
35577;BME280;21680;52.400;16.920;2023-11-21T02:05:19;100016.14;;;6.91;99.56
35577;BME280;21680;52.400;16.920;2023-11-21T02:07:47;100018.80;;;6.91;99.64
35577;BME280;21680;52.400;16.920;2023-11-21T02:10:14;100027.30;;;6.92;99.79
35577;BME280;21680;52.400;16.920;2023-11-21T02:12:41;100032.54;;;6.94;99.84
35577;BME280;21680;52.400;16.920;2023-11-21T02:15:08;100029.35;;;6.94;99.79
35577;BME280;21680;52.400;16.920;2023-11-21T02:17:43;100029.48;;;6.90;99.55
35577;BME280;21680;52.400;16.920;2023-11-21T02:20:10;100035.01;;;6.85;99.39
35577;BME280;21680;52.400;16.920;2023-11-21T02:22:41;100036.15;;;6.78;99.13
35577;BME280;21680;52.400;16.920;2023-11-21T02:25:08;100044.34;;;6.78;99.51
35577;BME280;21680;52.400;16.920;2023-11-21T02:27:33;100047.30;;;6.79;99.53
35577;BME280;21680;52.400;16.920;2023-11-21T02:29:59;100047.52;;;6.73;99.14
35577;BME280;21680;52.400;16.920;2023-11-21T02:32:26;100051.10;;;6.68;99.10
35577;BME280;21680;52.400;16.920;2023-11-21T02:34:51;100053.25;;;6.63;99.19
35577;BME280;21680;52.400;16.920;2023-11-21T02:37:16;100056.05;;;6.59;99.10
35577;BME280;21680;52.400;16.920;2023-11-21T02:39:42;100058.13;;;6.55;99.00
35577;BME280;21680;52.400;16.920;2023-11-21T02:42:07;100062.76;;;6.50;98.94
35577;BME280;21680;52.400;16.920;2023-11-21T02:44:33;100068.56;;;6.51;99.16
35577;BME280;21680;52.400;16.920;2023-11-21T02:46:58;100070.67;;;6.51;99.14
35577;BME280;21680;52.400;16.920;2023-11-21T02:49:23;100068.76;;;6.51;99.06
35577;BME280;21680;52.400;16.920;2023-11-21T02:51:49;100070.49;;;6.47;98.86
35577;BME280;21680;52.400;16.920;2023-11-21T02:54:14;100070.92;;;6.45;98.95
35577;BME280;21680;52.400;16.920;2023-11-21T02:56:39;100076.40;;;6.45;99.09
35577;BME280;21680;52.400;16.920;2023-11-21T02:59:05;100080.48;;;6.46;99.10
35577;BME280;21680;52.400;16.920;2023-11-21T03:01:30;100082.05;;;6.46;99.14
35577;BME280;21680;52.400;16.920;2023-11-21T03:03:56;100081.45;;;6.48;99.16
35577;BME280;21680;52.400;16.920;2023-11-21T03:06:22;100075.84;;;6.46;98.98
35577;BME280;21680;52.400;16.920;2023-11-21T03:08:48;100075.31;;;6.41;98.82
35577;BME280;21680;52.400;16.920;2023-11-21T03:11:14;100070.29;;;6.38;98.72
35577;BME280;21680;52.400;16.920;2023-11-21T03:13:42;100070.53;;;6.36;98.77
35577;BME280;21680;52.400;16.920;2023-11-21T03:16:09;100077.38;;;6.33;98.63
35577;BME280;21680;52.400;16.920;2023-11-21T03:18:34;100086.94;;;6.29;98.70
35577;BME280;21680;52.400;16.920;2023-11-21T03:20:59;100087.21;;;6.31;98.98
35577;BME280;21680;52.400;16.920;2023-11-21T03:23:25;100090.49;;;6.33;98.89
35577;BME280;21680;52.400;16.920;2023-11-21T03:25:50;100092.67;;;6.32;98.73
35577;BME280;21680;52.400;16.920;2023-11-21T03:28:15;100096.89;;;6.23;98.39
35577;BME280;21680;52.400;16.920;2023-11-21T03:30:40;100098.56;;;6.21;98.47
35577;BME280;21680;52.400;16.920;2023-11-21T03:33:06;100100.69;;;6.22;98.68
35577;BME280;21680;52.400;16.920;2023-11-21T03:35:32;100105.65;;;6.22;98.67
35577;BME280;21680;52.400;16.920;2023-11-21T03:37:58;100108.21;;;6.19;98.46
35577;BME280;21680;52.400;16.920;2023-11-21T03:40:23;100113.41;;;6.12;98.23
35577;BME280;21680;52.400;16.920;2023-11-21T03:42:49;100117.61;;;6.08;98.33
35577;BME280;21680;52.400;16.920;2023-11-21T03:45:14;100120.70;;;6.01;98.06
35577;BME280;21680;52.400;16.920;2023-11-21T03:47:42;100121.22;;;5.96;98.20
35577;BME280;21680;52.400;16.920;2023-11-21T03:50:14;100122.31;;;5.89;97.98
35577;BME280;21680;52.400;16.920;2023-11-21T03:52:39;100119.07;;;5.84;98.09
35577;BME280;21680;52.400;16.920;2023-11-21T03:55:04;100116.80;;;5.84;98.01
35577;BME280;21680;52.400;16.920;2023-11-21T03:57:30;100120.97;;;5.81;98.09
35577;BME280;21680;52.400;16.920;2023-11-21T03:59:55;100120.67;;;5.84;98.31
35577;BME280;21680;52.400;16.920;2023-11-21T04:02:20;100118.14;;;5.86;98.16
35577;BME280;21680;52.400;16.920;2023-11-21T04:04:45;100116.09;;;5.84;98.10
35577;BME280;21680;52.400;16.920;2023-11-21T04:07:11;100117.92;;;5.82;98.09
35577;BME280;21680;52.400;16.920;2023-11-21T04:09:39;100121.61;;;5.77;97.90
35577;BME280;21680;52.400;16.920;2023-11-21T04:12:04;100118.89;;;5.74;97.96
35577;BME280;21680;52.400;16.920;2023-11-21T04:14:30;100118.52;;;5.69;97.78
35577;BME280;21680;52.400;16.920;2023-11-21T04:16:55;100124.91;;;5.63;97.64
35577;BME280;21680;52.400;16.920;2023-11-21T04:19:21;100125.41;;;5.64;97.87
35577;BME280;21680;52.400;16.920;2023-11-21T04:21:46;100123.64;;;5.64;97.89
35577;BME280;21680;52.400;16.920;2023-11-21T04:24:11;100131.27;;;5.64;97.77
35577;BME280;21680;52.400;16.920;2023-11-21T04:26:37;100129.27;;;5.54;97.44
35577;BME280;21680;52.400;16.920;2023-11-21T04:29:04;100131.64;;;5.51;97.63
35577;BME280;21680;52.400;16.920;2023-11-21T04:31:30;100135.69;;;5.52;97.62
35577;BME280;21680;52.400;16.920;2023-11-21T04:33:55;100140.02;;;5.50;97.49
35577;BME280;21680;52.400;16.920;2023-11-21T04:36:22;100147.35;;;5.48;97.56
35577;BME280;21680;52.400;16.920;2023-11-21T04:38:47;100149.19;;;5.46;97.49
35577;BME280;21680;52.400;16.920;2023-11-21T04:41:13;100151.20;;;5.44;97.42
35577;BME280;21680;52.400;16.920;2023-11-21T04:43:38;100157.35;;;5.40;97.29
35577;BME280;21680;52.400;16.920;2023-11-21T04:46:03;100159.34;;;5.38;97.37
35577;BME280;21680;52.400;16.920;2023-11-21T04:48:29;100162.42;;;5.36;97.26
35577;BME280;21680;52.400;16.920;2023-11-21T04:50:54;100169.70;;;5.29;97.01
35577;BME280;21680;52.400;16.920;2023-11-21T04:53:19;100172.33;;;5.25;97.04
35577;BME280;21680;52.400;16.920;2023-11-21T04:55:45;100181.48;;;5.26;97.16
35577;BME280;21680;52.400;16.920;2023-11-21T04:58:11;100181.68;;;5.26;97.28
35577;BME280;21680;52.400;16.920;2023-11-21T05:00:37;100189.66;;;5.25;97.23
35577;BME280;21680;52.400;16.920;2023-11-21T05:03:03;100193.39;;;5.19;96.91
35577;BME280;21680;52.400;16.920;2023-11-21T05:05:32;100194.32;;;5.12;96.69
35577;BME280;21680;52.400;16.920;2023-11-21T05:07:59;100194.98;;;5.08;96.63
35577;BME280;21680;52.400;16.920;2023-11-21T05:10:24;100197.55;;;5.05;96.49
35577;BME280;21680;52.400;16.920;2023-11-21T05:12:50;100199.60;;;5.01;96.62
35577;BME280;21680;52.400;16.920;2023-11-21T05:15:16;100205.48;;;4.99;96.62
35577;BME280;21680;52.400;16.920;2023-11-21T05:17:44;100211.02;;;4.98;96.65
35577;BME280;21680;52.400;16.920;2023-11-21T05:20:11;100210.15;;;4.91;96.47
35577;BME280;21680;52.400;16.920;2023-11-21T05:22:38;100213.58;;;4.88;96.52
35577;BME280;21680;52.400;16.920;2023-11-21T05:25:05;100219.45;;;4.87;96.22
35577;BME280;21680;52.400;16.920;2023-11-21T05:27:30;100224.47;;;4.78;96.13
35577;BME280;21680;52.400;16.920;2023-11-21T05:29:56;100227.38;;;4.75;96.36
35577;BME280;21680;52.400;16.920;2023-11-21T05:32:23;100229.73;;;4.74;96.33
35577;BME280;21680;52.400;16.920;2023-11-21T05:34:49;100235.89;;;4.75;96.21
35577;BME280;21680;52.400;16.920;2023-11-21T05:37:14;100234.70;;;4.73;96.33
35577;BME280;21680;52.400;16.920;2023-11-21T05:39:39;100239.14;;;4.73;96.20
35577;BME280;21680;52.400;16.920;2023-11-21T05:42:05;100242.44;;;4.68;96.09
35577;BME280;21680;52.400;16.920;2023-11-21T05:44:31;100239.27;;;4.67;96.20
35577;BME280;21680;52.400;16.920;2023-11-21T05:46:57;100237.05;;;4.64;96.06
35577;BME280;21680;52.400;16.920;2023-11-21T05:49:24;100239.67;;;4.65;96.33
35577;BME280;21680;52.400;16.920;2023-11-21T05:51:53;100238.82;;;4.65;96.11
35577;BME280;21680;52.400;16.920;2023-11-21T05:54:19;100241.60;;;4.59;95.90
35577;BME280;21680;52.400;16.920;2023-11-21T05:56:46;100238.04;;;4.53;96.01
35577;BME280;21680;52.400;16.920;2023-11-21T05:59:12;100242.41;;;4.55;96.11
35577;BME280;21680;52.400;16.920;2023-11-21T06:01:37;100247.42;;;4.53;95.93
35577;BME280;21680;52.400;16.920;2023-11-21T06:04:05;100254.25;;;4.49;95.90
35577;BME280;21680;52.400;16.920;2023-11-21T06:06:33;100256.58;;;4.47;96.04
35577;BME280;21680;52.400;16.920;2023-11-21T06:08:58;100265.44;;;4.47;96.03
35577;BME280;21680;52.400;16.920;2023-11-21T06:11:23;100270.59;;;4.46;96.06
35577;BME280;21680;52.400;16.920;2023-11-21T06:13:49;100275.17;;;4.47;96.07
35577;BME280;21680;52.400;16.920;2023-11-21T06:16:15;100280.30;;;4.47;96.10
35577;BME280;21680;52.400;16.920;2023-11-21T06:18:42;100283.50;;;4.46;96.05
35577;BME280;21680;52.400;16.920;2023-11-21T06:21:12;100288.35;;;4.44;95.89
35577;BME280;21680;52.400;16.920;2023-11-21T06:23:37;100290.86;;;4.41;95.88
35577;BME280;21680;52.400;16.920;2023-11-21T06:26:03;100299.90;;;4.41;95.70
35577;BME280;21680;52.400;16.920;2023-11-21T06:28:29;100298.02;;;4.38;95.81
35577;BME280;21680;52.400;16.920;2023-11-21T06:30:55;100303.70;;;4.38;95.74
35577;BME280;21680;52.400;16.920;2023-11-21T06:33:21;100309.62;;;4.34;95.62
35577;BME280;21680;52.400;16.920;2023-11-21T06:35:47;100314.26;;;4.32;95.62
35577;BME280;21680;52.400;16.920;2023-11-21T06:38:12;100324.09;;;4.28;95.56
35577;BME280;21680;52.400;16.920;2023-11-21T06:40:37;100327.92;;;4.22;95.47
35577;BME280;21680;52.400;16.920;2023-11-21T06:43:03;100334.45;;;4.23;95.68
35577;BME280;21680;52.400;16.920;2023-11-21T06:45:30;100338.02;;;4.21;95.59
35577;BME280;21680;52.400;16.920;2023-11-21T06:47:55;100340.68;;;4.21;95.70
35577;BME280;21680;52.400;16.920;2023-11-21T06:50:20;100339.45;;;4.21;95.44
35577;BME280;21680;52.400;16.920;2023-11-21T06:52:46;100343.48;;;4.15;95.30
35577;BME280;21680;52.400;16.920;2023-11-21T06:55:11;100346.59;;;4.10;95.24
35577;BME280;21680;52.400;16.920;2023-11-21T06:57:37;100349.98;;;4.08;95.41
35577;BME280;21680;52.400;16.920;2023-11-21T07:00:04;100358.98;;;4.09;95.30
35577;BME280;21680;52.400;16.920;2023-11-21T07:02:29;100355.69;;;4.06;95.22
35577;BME280;21680;52.400;16.920;2023-11-21T07:04:55;100360.48;;;4.05;95.33
35577;BME280;21680;52.400;16.920;2023-11-21T07:07:20;100356.96;;;4.05;95.23
35577;BME280;21680;52.400;16.920;2023-11-21T07:09:46;100362.98;;;4.05;95.27
35577;BME280;21680;52.400;16.920;2023-11-21T07:12:11;100368.46;;;4.04;95.21
35577;BME280;21680;52.400;16.920;2023-11-21T07:14:37;100368.21;;;4.00;94.99
35577;BME280;21680;52.400;16.920;2023-11-21T07:17:04;100372.84;;;3.98;95.08
35577;BME280;21680;52.400;16.920;2023-11-21T07:19:29;100376.89;;;3.99;95.06
35577;BME280;21680;52.400;16.920;2023-11-21T07:21:56;100379.63;;;3.95;95.03
35577;BME280;21680;52.400;16.920;2023-11-21T07:24:21;100383.62;;;3.89;94.93
35577;BME280;21680;52.400;16.920;2023-11-21T07:26:48;100384.34;;;3.88;95.03
35577;BME280;21680;52.400;16.920;2023-11-21T07:29:14;100390.02;;;3.88;95.00
35577;BME280;21680;52.400;16.920;2023-11-21T07:31:40;100388.81;;;3.86;94.99
35577;BME280;21680;52.400;16.920;2023-11-21T07:34:07;100390.19;;;3.88;95.07
35577;BME280;21680;52.400;16.920;2023-11-21T07:36:33;100399.91;;;3.88;95.09
35577;BME280;21680;52.400;16.920;2023-11-21T07:38:58;100402.74;;;3.88;95.02
35577;BME280;21680;52.400;16.920;2023-11-21T07:41:25;100405.13;;;3.83;94.81
35577;BME280;21680;52.400;16.920;2023-11-21T07:43:50;100406.96;;;3.80;95.05
35577;BME280;21680;52.400;16.920;2023-11-21T07:46:16;100404.86;;;3.79;94.92
35577;BME280;21680;52.400;16.920;2023-11-21T07:48:42;100409.25;;;3.81;94.91
35577;BME280;21680;52.400;16.920;2023-11-21T07:51:08;100408.21;;;3.80;94.87
35577;BME280;21680;52.400;16.920;2023-11-21T07:53:35;100411.98;;;3.77;94.77
35577;BME280;21680;52.400;16.920;2023-11-21T07:56:07;100413.80;;;3.74;94.69
35577;BME280;21680;52.400;16.920;2023-11-21T07:58:33;100416.02;;;3.69;94.63
35577;BME280;21680;52.400;16.920;2023-11-21T08:01:00;100417.27;;;3.68;94.80
35577;BME280;21680;52.400;16.920;2023-11-21T08:03:26;100422.03;;;3.69;94.74
35577;BME280;21680;52.400;16.920;2023-11-21T08:06:00;100420.54;;;3.73;94.84
35577;BME280;21680;52.400;16.920;2023-11-21T08:08:28;100421.48;;;3.69;94.85
35577;BME280;21680;52.400;16.920;2023-11-21T08:10:53;100424.29;;;3.71;94.75
35577;BME280;21680;52.400;16.920;2023-11-21T08:13:25;100427.14;;;3.70;94.82
35577;BME280;21680;52.400;16.920;2023-11-21T08:15:53;100429.95;;;3.70;94.70
35577;BME280;21680;52.400;16.920;2023-11-21T08:18:19;100430.73;;;3.66;94.62
35577;BME280;21680;52.400;16.920;2023-11-21T08:20:44;100428.82;;;3.65;94.57
35577;BME280;21680;52.400;16.920;2023-11-21T08:23:16;100429.52;;;3.65;94.83
35577;BME280;21680;52.400;16.920;2023-11-21T08:25:45;100434.43;;;3.67;94.80
35577;BME280;21680;52.400;16.920;2023-11-21T08:28:11;100438.65;;;3.68;94.76
35577;BME280;21680;52.400;16.920;2023-11-21T08:30:36;100437.95;;;3.67;94.76
35577;BME280;21680;52.400;16.920;2023-11-21T08:33:02;100441.70;;;3.66;94.60
35577;BME280;21680;52.400;16.920;2023-11-21T08:35:29;100446.48;;;3.65;94.60
35577;BME280;21680;52.400;16.920;2023-11-21T08:37:55;100449.64;;;3.67;94.94
35577;BME280;21680;52.400;16.920;2023-11-21T08:40:21;100456.05;;;3.63;94.77
35577;BME280;21680;52.400;16.920;2023-11-21T08:42:47;100464.41;;;3.60;94.57
35577;BME280;21680;52.400;16.920;2023-11-21T08:45:14;100468.17;;;3.57;94.47
35577;BME280;21680;52.400;16.920;2023-11-21T08:47:40;100474.41;;;3.54;94.39
35577;BME280;21680;52.400;16.920;2023-11-21T08:50:09;100474.09;;;3.52;94.33
35577;BME280;21680;52.400;16.920;2023-11-21T08:52:34;100477.67;;;3.49;94.14
35577;BME280;21680;52.400;16.920;2023-11-21T08:55:02;100478.23;;;3.48;94.58
35577;BME280;21680;52.400;16.920;2023-11-21T08:57:40;100481.89;;;3.51;94.59
35577;BME280;21680;52.400;16.920;2023-11-21T09:00:07;100486.71;;;3.48;94.31
35577;BME280;21680;52.400;16.920;2023-11-21T09:02:37;100489.06;;;3.45;94.36
35577;BME280;21680;52.400;16.920;2023-11-21T09:05:04;100487.64;;;3.44;94.43
35577;BME280;21680;52.400;16.920;2023-11-21T09:07:29;100491.71;;;3.44;94.46
35577;BME280;21680;52.400;16.920;2023-11-21T09:09:55;100497.36;;;3.45;94.45
35577;BME280;21680;52.400;16.920;2023-11-21T09:12:21;100499.48;;;3.45;94.30
35577;BME280;21680;52.400;16.920;2023-11-21T09:14:47;100499.88;;;3.42;94.34
35577;BME280;21680;52.400;16.920;2023-11-21T09:17:12;100497.57;;;3.43;94.57
35577;BME280;21680;52.400;16.920;2023-11-21T09:19:38;100499.86;;;3.43;94.36
35577;BME280;21680;52.400;16.920;2023-11-21T09:22:04;100497.23;;;3.42;94.38
35577;BME280;21680;52.400;16.920;2023-11-21T09:24:33;100500.44;;;3.40;94.32
35577;BME280;21680;52.400;16.920;2023-11-21T09:26:59;100502.61;;;3.37;94.22
35577;BME280;21680;52.400;16.920;2023-11-21T09:29:26;100511.27;;;3.36;94.03
35577;BME280;21680;52.400;16.920;2023-11-21T09:31:51;100509.35;;;3.35;94.47
35577;BME280;21680;52.400;16.920;2023-11-21T09:34:17;100518.02;;;3.34;94.30
35577;BME280;21680;52.400;16.920;2023-11-21T09:36:45;100518.08;;;3.31;94.21
35577;BME280;21680;52.400;16.920;2023-11-21T09:39:10;100515.45;;;3.30;94.55
35577;BME280;21680;52.400;16.920;2023-11-21T09:41:50;100516.00;;;3.28;94.26
35577;BME280;21680;52.400;16.920;2023-11-21T09:44:23;100522.17;;;3.29;93.96
35577;BME280;21680;52.400;16.920;2023-11-21T09:46:52;100523.77;;;3.28;94.43
35577;BME280;21680;52.400;16.920;2023-11-21T09:49:23;100524.98;;;3.29;94.36
35577;BME280;21680;52.400;16.920;2023-11-21T09:51:53;100526.71;;;3.32;94.27
35577;BME280;21680;52.400;16.920;2023-11-21T09:54:20;100525.34;;;3.29;94.10
35577;BME280;21680;52.400;16.920;2023-11-21T09:56:47;100524.48;;;3.28;94.25
35577;BME280;21680;52.400;16.920;2023-11-21T09:59:15;100524.88;;;3.25;94.05
35577;BME280;21680;52.400;16.920;2023-11-21T10:01:41;100527.86;;;3.26;94.24
35577;BME280;21680;52.400;16.920;2023-11-21T10:04:10;100531.74;;;3.26;94.12
35577;BME280;21680;52.400;16.920;2023-11-21T10:06:40;100535.81;;;3.25;94.03
35577;BME280;21680;52.400;16.920;2023-11-21T10:09:09;100542.39;;;3.23;94.08
35577;BME280;21680;52.400;16.920;2023-11-21T10:11:40;100540.11;;;3.21;93.99
35577;BME280;21680;52.400;16.920;2023-11-21T10:14:07;100543.50;;;3.19;93.81
35577;BME280;21680;52.400;16.920;2023-11-21T10:16:35;100545.30;;;3.17;94.16
35577;BME280;21680;52.400;16.920;2023-11-21T10:19:05;100546.36;;;3.17;94.02
35577;BME280;21680;52.400;16.920;2023-11-21T10:21:33;100546.52;;;3.18;94.07
35577;BME280;21680;52.400;16.920;2023-11-21T10:23:58;100546.16;;;3.19;94.00
35577;BME280;21680;52.400;16.920;2023-11-21T10:26:26;100544.08;;;3.17;94.00
35577;BME280;21680;52.400;16.920;2023-11-21T10:28:59;100547.80;;;3.15;93.98
35577;BME280;21680;52.400;16.920;2023-11-21T10:31:27;100548.38;;;3.12;93.82
35577;BME280;21680;52.400;16.920;2023-11-21T10:33:53;100550.31;;;3.12;93.80
35577;BME280;21680;52.400;16.920;2023-11-21T10:36:26;100554.40;;;3.11;93.94
35577;BME280;21680;52.400;16.920;2023-11-21T10:38:53;100554.59;;;3.10;93.78
35577;BME280;21680;52.400;16.920;2023-11-21T10:41:19;100554.92;;;3.11;93.99
35577;BME280;21680;52.400;16.920;2023-11-21T10:43:45;100552.64;;;3.10;93.80
35577;BME280;21680;52.400;16.920;2023-11-21T10:46:11;100557.24;;;3.10;93.61
35577;BME280;21680;52.400;16.920;2023-11-21T10:48:36;100559.02;;;3.09;93.78
35577;BME280;21680;52.400;16.920;2023-11-21T10:51:06;100557.24;;;3.09;93.67
35577;BME280;21680;52.400;16.920;2023-11-21T10:53:41;100559.88;;;3.11;93.77
35577;BME280;21680;52.400;16.920;2023-11-21T10:56:08;100560.77;;;3.10;93.72
35577;BME280;21680;52.400;16.920;2023-11-21T10:58:44;100563.95;;;3.09;94.01
35577;BME280;21680;52.400;16.920;2023-11-21T11:01:10;100561.27;;;3.11;93.62
35577;BME280;21680;52.400;16.920;2023-11-21T11:03:41;100562.53;;;3.10;93.73
35577;BME280;21680;52.400;16.920;2023-11-21T11:06:10;100570.14;;;3.09;93.64
35577;BME280;21680;52.400;16.920;2023-11-21T11:08:40;100573.70;;;3.06;93.59
35577;BME280;21680;52.400;16.920;2023-11-21T11:11:06;100572.52;;;3.03;93.66
35577;BME280;21680;52.400;16.920;2023-11-21T11:13:33;100579.75;;;3.04;93.76
35577;BME280;21680;52.400;16.920;2023-11-21T11:15:59;100584.15;;;3.04;93.79
35577;BME280;21680;52.400;16.920;2023-11-21T11:18:29;100584.86;;;3.04;93.80
35577;BME280;21680;52.400;16.920;2023-11-21T11:21:24;100584.88;;;3.03;93.72
35577;BME280;21680;52.400;16.920;2023-11-21T11:35:10;100589.74;;;2.95;93.51
35577;BME280;21680;52.400;16.920;2023-11-21T11:37:35;100594.66;;;2.98;93.49
35577;BME280;21680;52.400;16.920;2023-11-21T11:40:07;100596.95;;;2.98;93.39
35577;BME280;21680;52.400;16.920;2023-11-21T11:42:33;100603.33;;;2.95;93.45
35577;BME280;21680;52.400;16.920;2023-11-21T11:44:59;100613.06;;;2.93;93.50
35577;BME280;21680;52.400;16.920;2023-11-21T11:47:26;100618.36;;;2.93;93.45
35577;BME280;21680;52.400;16.920;2023-11-21T11:50:07;100623.49;;;2.91;93.28
35577;BME280;21680;52.400;16.920;2023-11-21T11:52:47;100630.59;;;2.88;93.20
35577;BME280;21680;52.400;16.920;2023-11-21T11:55:16;100635.93;;;2.85;93.26
35577;BME280;21680;52.400;16.920;2023-11-21T11:57:46;100640.73;;;2.82;93.27
35577;BME280;21680;52.400;16.920;2023-11-21T12:02:54;100651.04;;;2.76;93.22
35577;BME280;21680;52.400;16.920;2023-11-21T12:05:22;100656.86;;;2.76;93.28
35577;BME280;21680;52.400;16.920;2023-11-21T12:07:50;100660.90;;;2.77;93.20
35577;BME280;21680;52.400;16.920;2023-11-21T12:12:50;100665.16;;;2.75;93.16
35577;BME280;21680;52.400;16.920;2023-11-21T12:15:18;100660.60;;;2.73;93.10
35577;BME280;21680;52.400;16.920;2023-11-21T12:17:44;100659.39;;;2.71;93.12
35577;BME280;21680;52.400;16.920;2023-11-21T12:20:13;100660.46;;;2.70;93.13
35577;BME280;21680;52.400;16.920;2023-11-21T12:22:56;100663.30;;;2.68;93.07
35577;BME280;21680;52.400;16.920;2023-11-21T12:25:26;100666.31;;;2.68;93.15
35577;BME280;21680;52.400;16.920;2023-11-21T12:27:54;100667.91;;;2.67;92.94
35577;BME280;21680;52.400;16.920;2023-11-21T12:30:22;100668.81;;;2.64;93.01
35577;BME280;21680;52.400;16.920;2023-11-21T12:32:49;100667.77;;;2.64;92.93
35577;BME280;21680;52.400;16.920;2023-11-21T12:35:17;100668.48;;;2.62;92.83
35577;BME280;21680;52.400;16.920;2023-11-21T12:37:45;100673.30;;;2.59;92.78
35577;BME280;21680;52.400;16.920;2023-11-21T12:40:13;100674.02;;;2.58;92.93
35577;BME280;21680;52.400;16.920;2023-11-21T12:42:43;100670.52;;;2.57;93.01
35577;BME280;21680;52.400;16.920;2023-11-21T12:45:23;100671.97;;;2.53;92.73
35577;BME280;21680;52.400;16.920;2023-11-21T12:48:02;100680.13;;;2.49;92.89
35577;BME280;21680;52.400;16.920;2023-11-21T12:50:33;100678.38;;;2.47;92.72
35577;BME280;21680;52.400;16.920;2023-11-21T12:53:07;100686.70;;;2.43;92.62
35577;BME280;21680;52.400;16.920;2023-11-21T12:55:43;100692.02;;;2.40;92.57
35577;BME280;21680;52.400;16.920;2023-11-21T12:58:16;100691.52;;;2.37;92.80
35577;BME280;21680;52.400;16.920;2023-11-21T13:00:46;100688.01;;;2.36;92.56
35577;BME280;21680;52.400;16.920;2023-11-21T13:03:13;100691.89;;;2.36;92.68
35577;BME280;21680;52.400;16.920;2023-11-21T13:05:42;100696.30;;;2.35;92.48